Time;durP1;ratioP1;P1;durP2;ratioP2;P2;SDS_P1;SDS_P2;PMS_P1;PMS_P2;Temp;Humidity;BMP_temperature;BMP_pressure;BME280_temperature;BME280_humidity;BME280_pressure;Samples;Min_cycle;Max_cycle;Signal;HPM_P1;HPM_P2
2021/05/30 00:00:01;;;;;;;0.10;0.10;;;;;;;10.51;59.50;99811.25;5089427;28;41098;-81
2021/05/30 00:02:30;;;;;;;0.10;0.10;;;;;;;10.60;59.52;99836.47;5089204;28;39256;-82
2021/05/30 00:04:58;;;;;;;0.10;0.10;;;;;;;10.46;59.30;99828.31;5089783;28;41909;-81
2021/05/30 00:07:25;;;;;;;0.50;0.33;;;;;;;10.41;59.38;99831.16;5089486;28;42635;-81
2021/05/30 00:09:53;;;;;;;0.10;0.10;;;;;;;10.47;59.62;99838.84;5089470;28;42868;-81
2021/05/30 00:12:21;;;;;;;0.30;0.30;;;;;;;10.33;59.89;99834.19;5105480;28;40053;-82
2021/05/30 00:14:49;;;;;;;0.30;0.30;;;;;;;10.38;59.87;99844.56;5071440;28;40819;-82
2021/05/30 00:17:16;;;;;;;0.93;0.93;;;;;;;10.34;59.89;99841.19;5072104;28;42722;-82
2021/05/30 00:19:44;;;;;;;0.10;0.10;;;;;;;10.23;59.86;99838.19;5088884;28;41091;-81
2021/05/30 00:22:12;;;;;;;0.10;0.10;;;;;;;10.30;60.24;99850.19;5105183;28;39836;-80
2021/05/30 00:24:39;;;;;;;0.37;0.37;;;;;;;10.19;60.15;99831.28;5088944;28;41113;-80
2021/05/30 00:27:07;;;;;;;0.60;0.53;;;;;;;10.26;60.16;99853.91;5071467;28;41759;-80
2021/05/30 00:29:34;;;;;;;0.40;0.40;;;;;;;10.15;60.31;99829.66;5089305;28;41425;-82
2021/05/30 00:32:02;;;;;;;0.37;0.37;;;;;;;10.23;60.37;99847.91;5071599;28;39208;-80
2021/05/30 00:34:29;;;;;;;0.70;0.70;;;;;;;10.18;60.49;99850.75;5092373;28;41685;-81
2021/05/30 00:36:56;;;;;;;0.23;0.23;;;;;;;10.19;60.24;99860.41;5096650;28;42625;-81
2021/05/30 00:39:24;;;;;;;0.50;0.50;;;;;;;10.11;60.43;99840.47;5098160;28;42263;-79
2021/05/30 00:41:51;;;;;;;0.10;0.10;;;;;;;10.05;60.43;99849.53;5098989;28;41104;-80
2021/05/30 00:44:21;;;;;;;0.40;0.40;;;;;;;9.99;60.40;99837.47;5114278;28;41410;-79
2021/05/30 00:46:48;;;;;;;0.20;0.20;;;;;;;10.02;60.49;99849.66;5098053;28;41697;-78
2021/05/30 00:49:16;;;;;;;0.57;0.57;;;;;;;10.01;60.75;99853.28;5106363;28;42237;-80
2021/05/30 00:51:43;;;;;;;0.20;0.20;;;;;;;9.81;60.88;99832.97;5105204;28;39824;-82
2021/05/30 00:54:11;;;;;;;0.50;0.50;;;;;;;9.86;60.86;99849.50;5088419;28;41736;-81
2021/05/30 00:56:39;;;;;;;0.10;0.10;;;;;;;9.86;61.11;99857.44;5072419;28;41785;-80
2021/05/30 00:59:08;;;;;;;0.20;0.20;;;;;;;9.47;61.13;99801.84;5088175;28;41039;-82
2021/05/30 01:01:36;;;;;;;0.23;0.17;;;;;;;9.78;61.46;99861.34;5089176;28;39551;-79
2021/05/30 01:04:04;;;;;;;0.17;0.17;;;;;;;9.73;61.14;99854.47;5070854;28;40803;-80
2021/05/30 01:06:31;;;;;;;0.20;0.20;;;;;;;9.60;61.03;99841.84;5088147;28;41767;-82
2021/05/30 01:09:00;;;;;;;0.10;0.10;;;;;;;9.66;61.79;99857.44;5088238;28;42550;-79
2021/05/30 01:11:29;;;;;;;0.50;0.50;;;;;;;9.55;61.86;99839.38;5089434;28;39964;-80
2021/05/30 01:13:58;;;;;;;0.40;0.40;;;;;;;9.59;61.95;99854.19;5088139;28;42329;-79
2021/05/30 01:16:27;;;;;;;0.10;0.10;;;;;;;9.56;62.05;99862.25;5089100;28;42667;-79
2021/05/30 01:18:57;;;;;;;0.20;0.20;;;;;;;9.54;62.44;99858.81;5087760;28;41214;-80
2021/05/30 01:21:27;;;;;;;0.40;0.40;;;;;;;9.53;62.50;99853.59;5088969;28;39813;-82
2021/05/30 01:23:57;;;;;;;0.20;0.20;;;;;;;9.50;62.47;99851.94;5087899;28;40961;-80
2021/05/30 01:26:25;;;;;;;0.10;0.10;;;;;;;9.45;62.26;99848.63;5071849;28;41779;-81
2021/05/30 01:28:53;;;;;;;0.13;0.13;;;;;;;9.43;62.00;99847.84;5091098;28;40960;-79
2021/05/30 01:31:20;;;;;;;0.10;0.10;;;;;;;9.39;62.80;99838.34;5092364;28;40255;-82
2021/05/30 01:33:48;;;;;;;0.57;0.57;;;;;;;9.41;63.08;99846.16;5091672;28;41500;-81
2021/05/30 01:36:15;;;;;;;0.30;0.30;;;;;;;9.32;62.97;99837.72;5091804;28;42769;-80
2021/05/30 01:38:42;;;;;;;0.10;0.10;;;;;;;9.28;62.88;99836.09;5092524;28;42661;-82
2021/05/30 01:41:10;;;;;;;0.13;0.13;;;;;;;9.33;62.75;99855.28;5091283;28;39070;-80
2021/05/30 01:43:38;;;;;;;0.40;0.40;;;;;;;9.22;62.85;99836.38;5091357;28;42178;-80
2021/05/30 01:46:05;;;;;;;0.10;0.10;;;;;;;9.27;62.82;99849.41;5090967;28;42682;-79
2021/05/30 01:48:32;;;;;;;0.10;0.10;;;;;;;9.19;62.91;99838.28;5107333;28;42233;-80
2021/05/30 01:50:59;;;;;;;0.10;0.10;;;;;;;9.17;63.06;99846.25;5090913;28;39185;-81
2021/05/30 01:53:33;;;;;;;0.40;0.40;;;;;;;9.21;63.47;99860.22;5091527;28;40847;-80
2021/05/30 01:58:47;;;;;;;0.50;0.50;;;;;;;9.13;63.66;99857.03;5091681;28;42175;-80
2021/05/30 02:01:16;;;;;;;0.20;0.20;;;;;;;9.00;63.65;99846.09;5106812;28;40165;-81
2021/05/30 02:03:45;;;;;;;0.37;0.37;;;;;;;9.00;64.05;99840.81;5089942;28;41457;-79
2021/05/30 02:06:16;;;;;;;0.27;0.27;;;;;;;8.98;64.56;99838.25;5091646;28;41899;-80
2021/05/30 02:08:44;;;;;;;0.30;0.30;;;;;;;8.87;64.41;99829.88;5091119;28;41188;-79
2021/05/30 02:11:13;;;;;;;0.40;0.40;;;;;;;9.04;65.62;99852.97;5091410;28;39318;-80
2021/05/30 02:13:41;;;;;;;0.20;0.20;;;;;;;9.02;65.84;99859.25;5091680;28;40778;-80
2021/05/30 02:16:09;;;;;;;0.57;0.27;;;;;;;9.01;65.53;99853.13;5106630;28;42326;-81
2021/05/30 02:18:36;;;;;;;0.63;0.63;;;;;;;8.95;65.47;99848.06;5091264;28;41108;-81
2021/05/30 02:21:04;;;;;;;0.10;0.10;;;;;;;8.98;65.38;99853.22;5073758;28;39224;-81
2021/05/30 02:23:31;;;;;;;0.20;0.20;;;;;;;8.98;65.19;99856.72;5091764;28;41558;-79
2021/05/30 02:25:58;;;;;;;0.23;0.23;;;;;;;8.98;65.26;99869.94;5091379;28;42996;-81
2021/05/30 02:28:26;;;;;;;0.63;0.63;;;;;;;8.96;65.01;99866.50;5092023;28;42132;-80
2021/05/30 02:30:53;;;;;;;0.60;0.60;;;;;;;8.94;64.78;99864.84;5091396;28;39037;-79
2021/05/30 02:33:21;;;;;;;0.30;0.30;;;;;;;8.90;65.15;99869.38;5090271;28;40843;-81
2021/05/30 02:35:48;;;;;;;0.47;0.47;;;;;;;8.71;65.05;99843.75;5091025;28;42654;-80
2021/05/30 02:38:15;;;;;;;0.53;0.53;;;;;;;8.83;64.85;99875.81;5090851;28;43078;-80
2021/05/30 02:40:43;;;;;;;0.20;0.20;;;;;;;8.76;64.78;99874.34;5091910;28;39897;-80
2021/05/30 02:43:10;;;;;;;0.47;0.47;;;;;;;8.72;64.47;99878.03;5090051;28;40848;-79
2021/05/30 02:45:37;;;;;;;0.57;0.40;;;;;;;8.58;64.54;99864.50;5106985;28;42898;-81
2021/05/30 02:48:05;;;;;;;0.33;0.33;;;;;;;8.64;64.68;99885.41;5106676;28;42743;-80
2021/05/30 02:50:33;;;;;;;0.10;0.10;;;;;;;8.61;65.42;99881.09;5091332;28;40478;-81
2021/05/30 02:53:00;;;;;;;0.17;0.17;;;;;;;8.56;66.00;99868.97;5090298;28;42583;-80
2021/05/30 02:55:27;;;;;;;0.20;0.20;;;;;;;8.52;65.90;99875.31;5090206;28;43197;-80
2021/05/30 02:57:55;;;;;;;0.63;0.53;;;;;;;8.52;66.66;99877.94;5073527;28;42586;-81
2021/05/30 03:00:22;;;;;;;0.20;0.20;;;;;;;8.45;66.60;99869.38;5073881;28;38932;-79
2021/05/30 03:02:49;;;;;;;0.30;0.30;;;;;;;8.51;67.04;99878.84;5106064;28;41935;-80
2021/05/30 03:05:16;;;;;;;0.20;0.20;;;;;;;8.53;67.05;99879.66;5073857;28;42780;-79
2021/05/30 03:07:44;;;;;;;0.23;0.23;;;;;;;8.51;66.83;99876.22;5106516;28;42511;-79
2021/05/30 03:10:12;;;;;;;0.83;0.83;;;;;;;8.48;66.78;99878.97;5090491;28;39880;-79
2021/05/30 03:12:39;;;;;;;0.20;0.20;;;;;;;8.50;66.42;99879.78;5090469;28;41619;-81
2021/05/30 03:15:07;;;;;;;0.20;0.20;;;;;;;8.40;66.22;99865.19;5089851;28;42025;-79
2021/05/30 03:17:35;;;;;;;0.10;0.10;;;;;;;8.48;66.10;99878.97;5090151;28;41435;-80
2021/05/30 03:20:03;;;;;;;0.83;0.80;;;;;;;8.47;65.95;99882.50;5089695;28;39015;-79
2021/05/30 03:22:30;;;;;;;0.20;0.20;;;;;;;8.43;66.52;99878.25;5090687;28;41657;-79
2021/05/30 03:24:58;;;;;;;0.83;0.53;;;;;;;8.45;66.56;99879.06;5089315;28;41921;-79
2021/05/30 03:27:25;;;;;;;0.93;0.93;;;;;;;8.44;66.44;99878.22;5090054;28;42656;-81
2021/05/30 03:29:53;;;;;;;0.70;0.70;;;;;;;8.45;66.54;99873.78;5090071;28;39829;-80
2021/05/30 03:32:21;;;;;;;0.67;0.67;;;;;;;8.37;66.54;99862.66;5089963;28;41390;-80
2021/05/30 03:34:48;;;;;;;0.33;0.33;;;;;;;8.34;66.34;99863.63;5089498;28;41735;-80
2021/05/30 03:37:15;;;;;;;0.83;0.83;;;;;;;8.44;66.28;99872.06;5089293;28;41212;-81
2021/05/30 03:39:44;;;;;;;0.47;0.47;;;;;;;8.42;66.24;99873.91;5106421;28;40483;-79
2021/05/30 03:42:14;;;;;;;0.20;0.20;;;;;;;8.43;65.94;99879.13;5089519;28;40732;-81
2021/05/30 03:44:41;;;;;;;0.47;0.47;;;;;;;8.44;65.94;99878.22;5089746;28;42888;-80
2021/05/30 03:47:12;;;;;;;0.20;0.20;;;;;;;8.39;66.09;99869.63;5088653;28;42119;-80
2021/05/30 03:49:39;;;;;;;0.20;0.20;;;;;;;8.47;65.92;99877.25;5088573;28;38365;-81
2021/05/30 03:52:07;;;;;;;0.30;0.30;;;;;;;8.48;65.73;99876.31;5088685;28;41512;-80
2021/05/30 03:54:35;;;;;;;0.20;0.20;;;;;;;8.34;65.88;99854.84;5088986;28;41907;-80
2021/05/30 03:57:02;;;;;;;0.20;0.20;;;;;;;8.53;65.51;99877.03;5089344;28;42983;-80
2021/05/30 03:59:30;;;;;;;0.27;0.27;;;;;;;8.41;65.76;99851.06;5089508;28;38859;-79
2021/05/30 04:01:57;;;;;;;0.20;0.20;;;;;;;8.59;65.40;99887.34;5090238;28;42063;-80
2021/05/30 04:04:25;;;;;;;0.17;0.17;;;;;;;8.62;65.60;99885.44;5089332;28;41442;-80
2021/05/30 04:06:52;;;;;;;0.20;0.20;;;;;;;8.51;65.46;99841.91;5088606;28;42988;-79
2021/05/30 04:09:19;;;;;;;0.57;0.57;;;;;;;8.71;65.21;99872.81;5106477;28;40333;-79
2021/05/30 04:11:46;;;;;;;0.40;0.40;;;;;;;8.75;65.32;99866.50;5089479;28;41641;-80
2021/05/30 04:14:13;;;;;;;0.20;0.20;;;;;;;8.78;65.33;99867.22;5088846;28;41893;-80
2021/05/30 04:16:41;;;;;;;0.17;0.17;;;;;;;8.75;65.25;99851.50;5105610;28;42250;-79
2021/05/30 04:19:09;;;;;;;1.07;1.07;;;;;;;8.89;65.17;99869.47;5089280;28;40604;-79
2021/05/30 04:21:36;;;;;;;0.20;0.20;;;;;;;8.97;65.13;99876.16;5104988;28;41549;-81
2021/05/30 04:24:03;;;;;;;0.20;0.20;;;;;;;9.00;65.52;99873.41;5105157;28;42729;-79
2021/05/30 04:26:30;;;;;;;0.10;0.10;;;;;;;9.10;65.56;99884.44;5072748;28;41400;-80
2021/05/30 04:28:57;;;;;;;0.30;0.30;;;;;;;9.17;65.79;99882.41;5088704;28;39047;-79
2021/05/30 04:31:25;;;;;;;0.20;0.20;;;;;;;9.13;65.19;99867.63;5087652;28;41589;-81
2021/05/30 04:33:53;;;;;;;0.90;0.90;;;;;;;9.30;65.63;99875.69;5072025;28;41562;-79
2021/05/30 04:36:20;;;;;;;0.57;0.57;;;;;;;9.27;65.26;99866.09;5089627;28;41670;-80
2021/05/30 04:38:47;;;;;;;0.20;0.20;;;;;;;9.47;65.49;99889.09;5087866;28;40068;-81
2021/05/30 04:41:15;;;;;;;0.17;0.17;;;;;;;9.55;65.01;99881.69;5088094;28;41489;-80
2021/05/30 04:43:42;;;;;;;0.43;0.43;;;;;;;9.53;65.00;99867.66;5104615;28;42678;-79
2021/05/30 04:46:09;;;;;;;0.60;0.60;;;;;;;9.77;65.40;99886.09;5088220;28;42970;-80
2021/05/30 04:48:36;;;;;;;0.10;0.10;;;;;;;9.87;65.00;99882.13;5104963;28;39585;-80
2021/05/30 04:51:07;;;;;;;0.70;0.70;;;;;;;9.97;64.71;99889.59;5071112;28;40772;-81
2021/05/30 04:53:38;;;;;;;0.10;0.10;;;;;;;10.09;65.07;99882.91;5087202;28;43437;-79
2021/05/30 04:56:06;;;;;;;0.13;0.13;;;;;;;10.19;64.88;99878.94;5106080;28;41404;-80
2021/05/30 04:58:33;;;;;;;0.53;0.53;;;;;;;10.30;65.08;99881.97;5088429;28;39111;-80
2021/05/30 05:01:01;;;;;;;0.10;0.10;;;;;;;10.37;64.92;99869.31;5104986;28;42353;-81
2021/05/30 05:03:29;;;;;;;0.77;0.77;;;;;;;10.43;64.75;99863.72;5091926;28;42885;-81
2021/05/30 05:05:56;;;;;;;4.93;0.60;;;;;;;10.59;64.73;99874.50;5091879;28;41638;-80
2021/05/30 05:08:24;;;;;;;0.63;0.63;;;;;;;10.76;64.62;99882.50;5108437;28;40948;-80
2021/05/30 05:10:52;;;;;;;0.20;0.20;;;;;;;10.83;64.73;99873.34;5108513;28;42070;-80
2021/05/30 05:13:20;;;;;;;0.10;0.10;;;;;;;10.99;64.54;99884.94;5091575;28;41930;-80
2021/05/30 05:15:49;;;;;;;0.10;0.10;;;;;;;11.11;64.52;99884.34;5092152;28;41600;-80
2021/05/30 05:18:18;;;;;;;0.10;0.10;;;;;;;11.22;63.99;99877.66;5095619;28;39467;-81
2021/05/30 05:20:47;;;;;;;0.20;0.20;;;;;;;11.33;64.16;99870.03;5096180;28;40949;-81
2021/05/30 05:23:15;;;;;;;1.13;0.83;;;;;;;11.50;64.12;99883.31;5111112;28;43471;-81
2021/05/30 05:25:44;;;;;;;1.13;1.13;;;;;;;11.62;64.16;99880.03;5113139;28;42954;-79
2021/05/30 05:28:11;;;;;;;0.47;0.47;;;;;;;11.73;64.67;99879.53;5098127;28;39894;-80
2021/05/30 05:30:38;;;;;;;0.10;0.10;;;;;;;11.53;64.40;99838.91;5091245;28;42467;-82
2021/05/30 05:33:06;;;;;;;0.70;0.70;;;;;;;11.90;64.17;99883.97;5074661;28;43242;-81
2021/05/30 05:35:33;;;;;;;0.93;0.93;;;;;;;12.06;64.14;99887.56;5092343;28;43024;-81
2021/05/30 05:38:01;;;;;;;0.73;0.73;;;;;;;12.18;63.90;99887.78;5091611;28;38801;-80
2021/05/30 05:40:29;;;;;;;0.47;0.47;;;;;;;12.26;63.57;99878.53;5091588;28;41076;-80
2021/05/30 05:42:58;;;;;;;0.93;0.87;;;;;;;12.43;63.79;99897.97;5108182;28;43459;-81
2021/05/30 05:45:25;;;;;;;0.60;0.60;;;;;;;12.54;63.30;99887.63;5091882;28;42221;-81
2021/05/30 05:47:53;;;;;;;0.50;0.50;;;;;;;12.48;63.77;99864.06;5091579;28;38878;-80
2021/05/30 05:50:22;;;;;;;0.50;0.50;;;;;;;12.70;63.58;99873.50;5092727;28;42212;-81
2021/05/30 05:52:51;;;;;;;0.73;0.73;;;;;;;12.91;63.33;99885.59;5074398;28;41667;-81
2021/05/30 05:55:19;;;;;;;0.83;0.83;;;;;;;13.07;63.52;99889.13;5091173;28;42153;-81
2021/05/30 05:57:48;;;;;;;0.27;0.27;;;;;;;13.23;62.89;99895.31;5091242;28;39920;-82
2021/05/30 06:00:20;;;;;;;0.77;0.63;;;;;;;13.40;62.70;99896.16;5091905;28;40811;-82
2021/05/30 06:02:49;;;;;;;1.47;0.90;;;;;;;13.54;62.23;99898.88;5072199;28;41759;-81
2021/05/30 06:05:18;;;;;;;0.77;0.77;;;;;;;13.64;62.34;99898.25;5087632;28;42251;-80
2021/05/30 06:07:46;;;;;;;0.03;0.03;;;;;;;13.68;62.40;99893.63;5071012;28;40184;-82
2021/05/30 06:10:15;;;;;;;1.20;1.20;;;;;;;13.79;62.38;99896.50;5085487;28;42374;-81
2021/05/30 06:12:43;;;;;;;0.20;0.20;;;;;;;13.97;62.16;99903.38;5088382;28;43494;-81
2021/05/30 06:15:11;;;;;;;0.50;0.50;;;;;;;14.09;61.97;99899.16;5086727;28;41971;-81
2021/05/30 06:17:39;;;;;;;1.37;0.63;;;;;;;14.27;61.51;99900.69;5083009;28;39945;-81
2021/05/30 06:20:08;;;;;;;0.60;0.60;;;;;;;14.56;60.98;99898.94;5070491;28;40710;-81
2021/05/30 06:22:35;;;;;;;0.50;0.50;;;;;;;14.78;60.79;99910.91;5087814;28;41976;-79
2021/05/30 06:25:03;;;;;;;0.90;0.90;;;;;;;14.90;60.33;99897.66;5086089;28;41266;-81
2021/05/30 06:27:30;;;;;;;0.90;0.90;;;;;;;15.08;60.13;99899.13;5088104;28;39379;-81
2021/05/30 06:29:57;;;;;;;0.47;0.47;;;;;;;15.28;59.85;99905.00;5070307;28;41759;-81
2021/05/30 06:32:24;;;;;;;1.67;1.57;;;;;;;15.02;59.04;99853.34;5085720;28;43340;-81
2021/05/30 06:34:52;;;;;;;1.27;1.17;;;;;;;15.48;58.76;99901.88;5085720;28;42814;-82
2021/05/30 06:37:20;;;;;;;1.70;1.60;;;;;;;15.64;59.01;99907.09;5069522;28;40060;-80
2021/05/30 06:39:47;;;;;;;0.17;0.17;;;;;;;15.81;58.48;99898.84;5084722;28;40584;-82
2021/05/30 06:42:14;;;;;;;0.50;0.50;;;;;;;15.91;58.54;99902.59;5086748;28;42726;-81
2021/05/30 06:44:41;;;;;;;0.33;0.33;;;;;;;16.04;57.13;99899.94;5087961;28;42627;-80
2021/05/30 06:47:08;;;;;;;0.27;0.27;;;;;;;16.16;56.92;99904.44;5088161;28;40324;-82
2021/05/30 06:49:35;;;;;;;0.23;0.23;;;;;;;16.35;56.78;99901.34;5069389;28;40797;-82
2021/05/30 06:52:05;;;;;;;0.47;0.47;;;;;;;16.56;55.87;99907.88;5087660;28;42555;-81
2021/05/30 06:54:32;;;;;;;0.30;0.30;;;;;;;16.72;56.19;99897.81;5085588;28;41137;-82
2021/05/30 06:56:59;;;;;;;2.03;1.50;;;;;;;16.99;55.75;99905.69;5087233;28;41700;-81
2021/05/30 06:59:26;;;;;;;0.80;0.80;;;;;;;17.31;54.90;99906.00;5086597;28;41656;-81
2021/05/30 07:01:53;;;;;;;0.67;0.67;;;;;;;17.57;54.33;99899.56;5087390;28;42933;-81
2021/05/30 07:04:22;;;;;;;1.00;1.00;;;;;;;17.89;53.78;99907.06;5086181;28;40537;-82
2021/05/30 07:06:50;;;;;;;0.87;0.60;;;;;;;18.17;52.84;99920.09;5069728;28;38733;-82
2021/05/30 07:09:17;;;;;;;1.23;1.23;;;;;;;18.31;51.35;99933.25;5103607;28;42117;-81
2021/05/30 07:11:45;;;;;;;0.20;0.20;;;;;;;18.32;50.51;99920.69;5102464;28;42537;-82
2021/05/30 07:14:12;;;;;;;1.27;1.07;;;;;;;18.36;50.89;99916.81;5085369;28;45664;-82
2021/05/30 07:16:39;;;;;;;1.00;1.00;;;;;;;18.48;50.63;99923.91;5087433;28;38991;-82
2021/05/30 07:19:06;;;;;;;0.47;0.47;;;;;;;18.53;50.54;99912.81;5086698;28;42277;-84
2021/05/30 07:21:34;;;;;;;3.90;1.73;;;;;;;18.95;50.53;99924.69;5087274;28;42887;-82
2021/05/30 07:24:01;;;;;;;0.70;0.70;;;;;;;19.36;48.86;99915.97;5085954;28;41314;-83
2021/05/30 07:26:29;;;;;;;0.80;0.80;;;;;;;20.37;46.01;99948.75;5101945;28;39875;-82
2021/05/30 07:28:56;;;;;;;0.87;0.87;;;;;;;21.74;44.05;99942.78;5086312;28;41744;-81
2021/05/30 07:31:24;;;;;;;0.43;0.43;;;;;;;23.19;40.76;99977.69;5081573;28;42806;-81
2021/05/30 07:33:51;;;;;;;0.77;0.43;;;;;;;24.21;37.68;99983.78;5069247;28;42028;-82
2021/05/30 07:36:18;;;;;;;1.47;1.37;;;;;;;24.99;37.25;99979.31;5085788;28;39455;-82
2021/05/30 07:38:45;;;;;;;0.87;0.87;;;;;;;25.36;36.93;99987.97;5086390;28;41684;-84
2021/05/30 07:41:12;;;;;;;1.03;1.03;;;;;;;25.61;36.63;99974.53;5085567;28;42722;-84
2021/05/30 07:43:40;;;;;;;2.07;1.80;;;;;;;26.13;35.89;99981.44;5084979;28;41573;-81
2021/05/30 07:46:07;;;;;;;1.53;1.37;;;;;;;26.65;33.84;99974.88;5102193;28;39876;-84
2021/05/30 07:48:35;;;;;;;0.67;0.67;;;;;;;28.04;31.79;99990.53;5067998;28;40718;-83
2021/05/30 07:51:03;;;;;;;1.37;1.37;;;;;;;29.45;30.21;100002.56;5085326;28;43530;-83
2021/05/30 07:53:30;;;;;;;0.10;0.10;;;;;;;29.98;28.29;99986.84;5084947;28;42728;-83
2021/05/30 07:55:57;;;;;;;0.50;0.50;;;;;;;30.70;28.06;99992.19;5083976;28;40086;-87
2021/05/30 07:58:24;;;;;;;1.60;0.80;;;;;;;31.14;27.71;99993.81;5080409;28;41659;-83
2021/05/30 08:00:52;;;;;;;0.90;0.90;;;;;;;31.28;26.67;100020.22;5080853;28;42944;-82
2021/05/30 08:03:21;;;;;;;1.40;1.00;;;;;;;31.10;26.15;100008.94;5084871;28;41593;-83
2021/05/30 08:05:49;;;;;;;2.10;1.17;;;;;;;30.67;27.94;99993.44;5068417;28;39038;-85
2021/05/30 08:08:17;;;;;;;0.73;0.43;;;;;;;30.67;27.60;99996.16;5085055;28;42029;-83
2021/05/30 08:10:44;;;;;;;4.30;1.33;;;;;;;31.27;26.33;100002.13;5084415;28;42806;-86
2021/05/30 08:13:12;;;;;;;0.53;0.53;;;;;;;31.78;25.80;100003.44;5085285;28;41122;-85
2021/05/30 08:15:39;;;;;;;0.73;0.63;;;;;;;32.15;24.59;100008.63;5086614;28;39661;-87
2021/05/30 08:18:07;;;;;;;0.50;0.50;;;;;;;32.64;24.56;99995.38;5100540;28;41622;-85
2021/05/30 08:20:35;;;;;;;1.43;1.33;;;;;;;32.79;24.70;99968.63;5085997;28;42761;-85
2021/05/30 08:23:03;;;;;;;0.87;0.60;;;;;;;33.11;24.11;99988.84;5053210;28;41812;-84
2021/05/30 08:25:33;;;;;;;0.60;0.60;;;;;;;32.99;23.47;99993.31;5085513;28;39670;-81
2021/05/30 08:28:00;;;;;;;0.20;0.20;;;;;;;32.50;23.72;99990.13;5094584;28;40764;-83
2021/05/30 08:30:27;;;;;;;0.20;0.20;;;;;;;31.88;23.48;99999.47;5085595;28;42818;-83
2021/05/30 08:33:01;;;;;;;0.50;0.50;;;;;;;31.64;25.51;99974.31;5083259;28;42703;-85
2021/05/30 08:35:32;;;;;;;0.53;0.53;;;;;;;31.62;24.66;99979.13;5093943;28;39210;-85
2021/05/30 08:37:59;;;;;;;0.70;0.70;;;;;;;31.70;25.43;99978.13;5067518;28;40208;-87
2021/05/30 08:40:26;;;;;;;1.70;0.57;;;;;;;32.36;25.79;99954.47;5085963;28;42351;-85
2021/05/30 08:42:54;;;;;;;0.40;0.40;;;;;;;33.32;23.26;99967.69;5086962;28;42481;-85
2021/05/30 08:45:22;;;;;;;0.47;0.47;;;;;;;34.62;21.49;99994.69;5088056;28;40487;-87
2021/05/30 08:47:49;;;;;;;1.13;1.03;;;;;;;36.10;20.57;100000.16;5087291;28;41506;-83
2021/05/30 08:50:18;;;;;;;0.73;0.73;;;;;;;37.45;19.27;99997.47;5088303;28;41655;-82
2021/05/30 08:52:49;;;;;;;1.10;1.10;;;;;;;38.24;17.74;99982.78;5089580;28;43349;-85
2021/05/30 08:55:16;;;;;;;0.47;0.47;;;;;;;38.16;18.95;99977.66;5088463;28;39212;-84
2021/05/30 08:57:45;;;;;;;0.60;0.60;;;;;;;37.66;18.81;99963.66;5072461;28;20617;-84
2021/05/30 09:00:22;;;;;;;0.97;0.97;;;;;;;37.31;18.13;99970.09;5087596;28;44991;-84
2021/05/30 09:03:10;;;;;;;0.50;0.50;;;;;;;37.14;18.14;99985.69;5088843;28;41508;-86
2021/05/30 09:05:39;;;;;;;0.73;0.73;;;;;;;35.89;19.00;99977.50;5088818;28;38931;-83
2021/05/30 09:08:09;;;;;;;1.23;1.17;;;;;;;34.83;21.09;99966.00;5071495;28;41080;-87
2021/05/30 09:10:37;;;;;;;0.90;0.90;;;;;;;34.34;21.24;99923.63;5105473;28;42662;-82
2021/05/30 09:13:06;;;;;;;0.60;0.60;;;;;;;34.38;21.23;99955.13;5121545;28;41174;-84
2021/05/30 09:15:51;;;;;;;0.60;0.60;;;;;;;34.96;19.51;99968.63;5107279;28;40359;-82
2021/05/30 09:18:20;;;;;;;2.10;1.90;;;;;;;36.22;19.47;99960.53;5103430;28;41470;-81
2021/05/30 09:20:57;;;;;;;1.53;1.43;;;;;;;37.22;19.38;99965.16;5104721;28;41783;-81
2021/05/30 09:23:32;;;;;;;0.37;0.37;;;;;;;37.63;16.40;99983.50;5098862;28;41500;-84
2021/05/30 09:26:11;;;;;;;0.43;0.43;;;;;;;37.33;16.24;99984.53;5091219;28;39757;-85
2021/05/30 09:28:39;;;;;;;0.63;0.63;;;;;;;37.50;16.84;99967.16;5089709;28;42141;-86
2021/05/30 09:31:06;;;;;;;0.57;0.57;;;;;;;38.85;16.68;99981.06;5090749;28;42877;-84
2021/05/30 09:33:35;;;;;;;0.70;0.60;;;;;;;39.54;15.31;99991.84;5089047;28;42072;-85
2021/05/30 09:36:04;;;;;;;0.70;0.70;;;;;;;40.34;16.00;99982.78;5089254;28;38914;-86
2021/05/30 09:38:40;;;;;;;0.40;0.40;;;;;;;41.11;15.97;99971.19;5075174;28;40826;-84
2021/05/30 09:41:14;;;;;;;0.50;0.50;;;;;;;41.72;14.92;99965.97;5064605;28;42282;-84
2021/05/30 09:44:03;;;;;;;0.50;0.50;;;;;;;41.91;15.19;99954.06;5074935;28;41555;-86
2021/05/30 09:46:33;;;;;;;0.80;0.75;;;;;;;42.10;14.52;99959.13;5069285;28;39006;-86
2021/05/30 09:49:01;;;;;;;0.40;0.40;;;;;;;41.39;15.70;99936.59;5086565;28;41088;-85
2021/05/30 09:51:40;;;;;;;0.70;0.70;;;;;;;39.75;15.68;99963.25;5075005;28;41766;-87
2021/05/30 09:54:13;;;;;;;0.50;0.50;;;;;;;38.25;15.35;99958.72;5090393;28;41197;-87
2021/05/30 09:56:43;;;;;;;0.37;0.37;;;;;;;35.54;17.85;99913.06;5090631;28;40089;-85
2021/05/30 09:59:12;;;;;;;0.63;0.63;;;;;;;35.68;17.60;99928.38;5072586;28;42525;-81
2021/05/30 10:01:48;;;;;;;0.50;0.50;;;;;;;35.95;17.78;99932.47;5090539;28;42113;-82
2021/05/30 10:04:15;;;;;;;0.43;0.43;;;;;;;34.72;18.57;99920.75;5089769;28;41563;-85
2021/05/30 10:06:45;;;;;;;0.63;0.50;;;;;;;33.45;20.15;99929.19;5089729;28;38909;-85
2021/05/30 10:09:19;;;;;;;0.47;0.47;;;;;;;32.91;20.88;99902.94;5088704;28;41580;-83
2021/05/30 10:11:47;;;;;;;0.67;0.53;;;;;;;32.36;20.26;99896.88;5087765;28;42792;-86
2021/05/30 10:14:18;;;;;;;0.53;0.53;;;;;;;32.36;20.32;99918.81;5087394;28;41962;-83
2021/05/30 10:16:49;;;;;;;0.87;0.87;;;;;;;32.16;21.48;99906.97;5105654;28;40311;-84
2021/05/30 10:19:25;;;;;;;0.60;0.60;;;;;;;32.37;20.07;99909.53;5068581;28;41654;-86
2021/05/30 10:21:54;;;;;;;0.30;0.30;;;;;;;32.58;18.74;99926.81;5086732;28;41910;-85
2021/05/30 10:24:26;;;;;;;0.37;0.37;;;;;;;32.27;18.57;99933.78;5086190;28;42043;-82
2021/05/30 10:27:16;;;;;;;0.47;0.47;;;;;;;31.48;19.34;99936.28;5085919;28;39293;-84
2021/05/30 10:30:16;;;;;;;0.33;0.33;;;;;;;31.03;21.35;99870.13;5080714;28;41383;-83
2021/05/30 10:32:46;;;;;;;0.20;0.20;;;;;;;30.51;21.40;99873.41;5066978;28;41765;-85
2021/05/30 10:35:18;;;;;;;0.40;0.40;;;;;;;31.03;20.84;99916.66;5065818;28;42131;-87
2021/05/30 10:37:50;;;;;;;0.43;0.43;;;;;;;30.89;19.53;99895.75;5067693;28;39298;-82
2021/05/30 10:40:45;;;;;;;0.33;0.33;;;;;;;31.24;22.58;99896.59;5065849;28;42537;-85
2021/05/30 10:43:20;;;;;;;0.60;0.60;;;;;;;30.92;20.40;99872.59;5052428;28;42625;-83
2021/05/30 10:46:08;;;;;;;0.47;0.47;;;;;;;31.01;22.28;99899.63;5081435;28;41312;-85
2021/05/30 10:48:37;;;;;;;0.50;0.50;;;;;;;30.81;22.41;99884.97;5082962;28;40091;-87
2021/05/30 10:51:15;;;;;;;0.37;0.30;;;;;;;30.19;21.54;99883.00;5085488;28;42543;-85
2021/05/30 10:53:43;;;;;;;0.57;0.57;;;;;;;29.75;22.72;99891.41;5085138;28;41785;-84
2021/05/30 10:56:26;;;;;;;0.57;0.57;;;;;;;29.39;21.58;99912.41;5085523;28;41745;-83
2021/05/30 10:59:31;;;;;;;0.30;0.30;;;;;;;29.28;21.82;99905.53;5084333;28;39860;-81
2021/05/30 11:02:01;;;;;;;0.67;0.67;;;;;;;29.21;23.93;99869.97;5065410;28;40907;-83
2021/05/30 11:04:39;;;;;;;0.40;0.40;;;;;;;29.37;23.51;99884.44;5088250;28;42405;-86
2021/05/30 11:07:22;;;;;;;0.57;0.57;;;;;;;29.41;21.59;99903.00;5081484;28;42329;-86
2021/05/30 11:10:09;;;;;;;0.37;0.37;;;;;;;29.45;22.78;99863.34;5049937;28;40125;-82
2021/05/30 11:12:58;;;;;;;0.47;0.47;;;;;;;29.73;24.62;99873.50;5075429;28;40616;-83
2021/05/30 11:15:38;;;;;;;0.10;0.10;;;;;;;29.64;21.31;99887.31;5086139;28;42780;-86
2021/05/30 11:18:10;;;;;;;0.57;0.57;;;;;;;29.87;22.13;99881.66;5084312;28;41181;-82
2021/05/30 11:20:43;;;;;;;0.67;0.40;;;;;;;29.72;20.95;99893.66;5086313;28;39142;-85
2021/05/30 11:23:13;;;;;;;0.17;0.17;;;;;;;29.59;22.82;99878.00;5082720;28;41387;-81
2021/05/30 11:25:50;;;;;;;0.50;0.50;;;;;;;29.58;24.02;99868.94;5068485;28;41830;-85
2021/05/30 11:28:21;;;;;;;0.50;0.50;;;;;;;29.56;23.81;99846.44;5086203;28;41311;-83
2021/05/30 11:31:01;;;;;;;0.53;0.53;;;;;;;29.87;23.43;99853.50;5087456;28;39563;-82
2021/05/30 11:33:41;;;;;;;0.40;0.40;;;;;;;29.61;22.72;99875.91;5086507;28;41014;-84
2021/05/30 11:36:16;;;;;;;0.77;0.77;;;;;;;29.48;23.29;99865.69;5102423;28;42498;-83
2021/05/30 11:38:50;;;;;;;0.30;0.30;;;;;;;29.93;24.12;99847.22;5087016;28;41865;-85
2021/05/30 11:41:22;;;;;;;0.40;0.40;;;;;;;30.68;23.06;99852.91;5068701;28;39067;-81
2021/05/30 11:43:58;;;;;;;0.10;0.10;;;;;;;31.28;22.16;99839.56;5085772;28;41722;-82
2021/05/30 11:46:26;;;;;;;0.30;0.30;;;;;;;31.91;21.08;99862.03;5100778;28;42485;-83
2021/05/30 11:49:06;;;;;;;0.30;0.30;;;;;;;31.32;20.37;99873.66;5081976;28;42907;-87